Time;durP1;ratioP1;P1;durP2;ratioP2;P2;SDS_P1;SDS_P2;PMS_P1;PMS_P2;Temp;Humidity;BMP_temperature;BMP_pressure;BME280_temperature;BME280_humidity;BME280_pressure;Samples;Min_cycle;Max_cycle;Signal;HPM_P1;HPM_P2
2023/07/05 00:01:10;;;;;;;;;6.67;5.33;;;;;;;;5012338;28;45494;-71
2023/07/05 00:03:35;;;;;;;;;10.67;9.33;;;;;;;;5002460;28;45489;-69
2023/07/05 00:06:04;;;;;;;;;8.67;8.67;;;;;;;;5011983;28;45442;-70
2023/07/05 00:08:31;;;;;;;;;11.33;9.33;;;;;;;;5014143;28;45927;-70
2023/07/05 00:11:06;;;;;;;;;8.00;6.00;;;;;;;;5010940;28;45426;-70
2023/07/05 00:13:32;;;;;;;;;10.00;8.33;;;;;;;;5014410;28;45477;-71
2023/07/05 00:15:58;;;;;;;;;12.33;8.00;;;;;;;;5007405;28;45417;-70
2023/07/05 00:18:23;;;;;;;;;11.33;9.67;;;;;;;;5012375;28;45837;-70
2023/07/05 00:20:49;;;;;;;;;12.00;7.33;;;;;;;;5015239;28;46171;-69
2023/07/05 00:23:14;;;;;;;;;7.33;6.33;;;;;;;;5012185;28;46891;-69
2023/07/05 00:25:39;;;;;;;;;14.67;9.67;;;;;;;;5013095;28;45714;-69
2023/07/05 00:28:05;;;;;;;;;12.33;8.33;;;;;;;;5006527;28;45578;-71
2023/07/05 00:30:30;;;;;;;;;10.00;10.00;;;;;;;;5009272;28;45731;-71
2023/07/05 00:32:55;;;;;;;;;16.67;12.33;;;;;;;;5022631;28;46073;-69
2023/07/05 00:35:20;;;;;;;;;10.67;8.67;;;;;;;;5029741;28;45772;-70
2023/07/05 00:37:46;;;;;;;;;11.33;10.67;;;;;;;;5030890;28;46296;-70
2023/07/05 00:40:11;;;;;;;;;10.00;10.00;;;;;;;;5023888;28;45916;-69
2023/07/05 00:42:36;;;;;;;;;17.67;13.33;;;;;;;;5023666;28;45748;-69
2023/07/05 00:45:11;;;;;;;;;9.33;8.67;;;;;;;;5012818;28;45744;-70
2023/07/05 00:47:41;;;;;;;;;11.67;9.67;;;;;;;;5003999;28;45637;-70
2023/07/05 00:50:24;;;;;;;;;13.33;8.67;;;;;;;;5012868;28;45819;-69
2023/07/05 00:52:50;;;;;;;;;13.33;9.00;;;;;;;;5012210;28;47120;-72
2023/07/05 00:55:16;;;;;;;;;9.33;7.67;;;;;;;;5010016;28;45522;-69
2023/07/05 00:57:41;;;;;;;;;13.00;10.33;;;;;;;;5011802;28;45777;-70
2023/07/05 01:00:08;;;;;;;;;14.00;11.00;;;;;;;;5015417;28;45824;-70
2023/07/05 01:02:38;;;;;;;;;12.33;9.67;;;;;;;;5010747;28;45619;-68
2023/07/05 01:05:04;;;;;;;;;11.00;7.00;;;;;;;;5010322;28;45723;-70
2023/07/05 01:07:29;;;;;;;;;12.00;11.33;;;;;;;;5015166;28;46064;-70
2023/07/05 01:09:55;;;;;;;;;7.67;7.67;;;;;;;;5011118;28;45532;-71
2023/07/05 01:12:39;;;;;;;;;12.33;7.33;;;;;;;;5011224;28;46342;-70
2023/07/05 01:15:07;;;;;;;;;10.67;8.67;;;;;;;;5013885;28;45871;-69
2023/07/05 01:17:51;;;;;;;;;9.00;8.67;;;;;;;;5015226;28;45926;-70
2023/07/05 01:20:23;;;;;;;;;9.00;7.67;;;;;;;;5013240;28;46371;-69
2023/07/05 01:23:00;;;;;;;;;9.00;4.67;;;;;;;;5014580;28;45637;-70
2023/07/05 01:25:32;;;;;;;;;8.67;8.33;;;;;;;;5017695;28;45500;-70
2023/07/05 01:28:11;;;;;;;;;6.67;6.33;;;;;;;;5012725;28;45487;-69
2023/07/05 01:30:56;;;;;;;;;9.33;6.33;;;;;;;;5011715;28;45355;-70
2023/07/05 01:33:32;;;;;;;;;6.00;6.00;;;;;;;;5005127;28;45735;-69
2023/07/05 01:35:58;;;;;;;;;12.00;9.33;;;;;;;;5013441;28;45728;-71
2023/07/05 01:38:23;;;;;;;;;7.33;5.67;;;;;;;;5013553;28;45409;-70
2023/07/05 01:40:50;;;;;;;;;8.00;6.67;;;;;;;;5006455;28;45434;-70
2023/07/05 01:43:16;;;;;;;;;7.67;7.67;;;;;;;;5012289;28;46746;-70
2023/07/05 01:45:47;;;;;;;;;6.67;5.67;;;;;;;;5004400;28;45428;-68
2023/07/05 01:48:23;;;;;;;;;7.67;6.67;;;;;;;;5011181;28;45852;-69
2023/07/05 01:50:52;;;;;;;;;4.67;4.67;;;;;;;;5021374;28;45532;-69
2023/07/05 01:53:20;;;;;;;;;9.67;6.67;;;;;;;;5010220;28;47243;-69
2023/07/05 01:55:58;;;;;;;;;5.33;5.00;;;;;;;;5012541;28;45751;-70
2023/07/05 01:58:25;;;;;;;;;7.67;6.00;;;;;;;;5010392;28;45681;-69
2023/07/05 02:00:51;;;;;;;;;4.00;3.00;;;;;;;;5011353;28;45726;-70
2023/07/05 02:03:18;;;;;;;;;5.33;4.33;;;;;;;;5005769;28;45381;-70
2023/07/05 02:05:45;;;;;;;;;11.00;5.33;;;;;;;;5010670;28;45397;-69
2023/07/05 02:08:10;;;;;;;;;5.33;5.33;;;;;;;;5011404;28;45557;-71
2023/07/05 02:10:36;;;;;;;;;4.33;2.67;;;;;;;;5010747;28;45776;-69
2023/07/05 02:13:03;;;;;;;;;3.33;3.33;;;;;;;;4999039;28;46691;-69
2023/07/05 02:15:35;;;;;;;;;6.67;3.33;;;;;;;;5010257;28;46548;-70
2023/07/05 02:18:00;;;;;;;;;3.00;1.00;;;;;;;;5011473;28;45606;-70
2023/07/05 02:20:26;;;;;;;;;3.00;2.00;;;;;;;;5002425;28;45356;-70
2023/07/05 02:22:51;;;;;;;;;4.00;2.67;;;;;;;;5006162;28;47041;-69
2023/07/05 02:25:16;;;;;;;;;2.00;2.00;;;;;;;;4993918;28;45451;-70
2023/07/05 02:27:41;;;;;;;;;6.33;5.67;;;;;;;;5001267;28;45747;-69
2023/07/05 02:30:09;;;;;;;;;2.00;2.00;;;;;;;;5010952;28;45783;-69
2023/07/05 02:32:34;;;;;;;;;6.00;4.00;;;;;;;;5010207;28;46314;-70
2023/07/05 02:35:01;;;;;;;;;2.00;2.00;;;;;;;;5010652;28;45517;-70
2023/07/05 02:37:26;;;;;;;;;3.33;2.33;;;;;;;;5010730;28;45398;-69
2023/07/05 02:39:52;;;;;;;;;8.00;3.67;;;;;;;;5013194;28;45966;-69
2023/07/05 02:42:17;;;;;;;;;1.00;0.00;;;;;;;;5011055;28;45735;-70
2023/07/05 02:44:43;;;;;;;;;3.00;2.67;;;;;;;;5011290;28;45903;-70
2023/07/05 02:47:08;;;;;;;;;6.33;3.33;;;;;;;;4999084;28;45470;-71
2023/07/05 02:49:33;;;;;;;;;3.00;3.00;;;;;;;;5010399;28;45635;-69
2023/07/05 02:51:58;;;;;;;;;5.00;2.00;;;;;;;;5011894;28;45539;-69
2023/07/05 02:54:24;;;;;;;;;4.00;4.00;;;;;;;;5012403;28;45324;-69
2023/07/05 02:56:49;;;;;;;;;2.67;2.67;;;;;;;;5011762;28;45372;-69
2023/07/05 02:59:14;;;;;;;;;4.00;2.00;;;;;;;;5011308;28;45297;-70
2023/07/05 03:01:39;;;;;;;;;1.00;1.00;;;;;;;;5010771;28;46380;-68
2023/07/05 03:04:05;;;;;;;;;2.00;2.00;;;;;;;;5011722;28;46385;-69
2023/07/05 03:06:30;;;;;;;;;5.00;1.67;;;;;;;;5009946;28;45397;-69
2023/07/05 03:08:55;;;;;;;;;2.33;2.33;;;;;;;;5010564;28;45370;-68
2023/07/05 03:11:20;;;;;;;;;2.67;1.33;;;;;;;;5011273;28;46113;-69
2023/07/05 03:13:45;;;;;;;;;4.00;2.33;;;;;;;;5010179;28;45458;-69
2023/07/05 03:16:11;;;;;;;;;2.00;1.00;;;;;;;;5010036;28;45615;-69
2023/07/05 03:18:36;;;;;;;;;4.00;2.67;;;;;;;;5008999;28;47010;-69
2023/07/05 03:21:02;;;;;;;;;3.33;2.33;;;;;;;;5008657;28;47097;-68
2023/07/05 03:23:27;;;;;;;;;2.67;2.67;;;;;;;;5010378;28;45673;-71
2023/07/05 03:25:54;;;;;;;;;3.00;2.33;;;;;;;;5017429;28;45754;-72
2023/07/05 03:28:19;;;;;;;;;2.33;1.00;;;;;;;;5010609;28;45643;-71
2023/07/05 03:30:51;;;;;;;;;3.00;3.00;;;;;;;;5009848;28;45819;-72
2023/07/05 03:33:17;;;;;;;;;1.00;1.00;;;;;;;;5010203;28;45707;-72
2023/07/05 03:35:42;;;;;;;;;2.33;1.33;;;;;;;;5009361;28;45753;-71
2023/07/05 03:38:08;;;;;;;;;0.67;0.67;;;;;;;;5007527;28;46753;-71
2023/07/05 03:40:33;;;;;;;;;2.00;2.00;;;;;;;;4999128;28;45860;-71
2023/07/05 03:42:58;;;;;;;;;2.33;2.00;;;;;;;;5010580;28;45523;-72
2023/07/05 03:45:24;;;;;;;;;3.00;2.33;;;;;;;;5011154;28;45412;-70
2023/07/05 03:47:49;;;;;;;;;3.00;2.00;;;;;;;;5005825;28;46056;-71
2023/07/05 03:50:14;;;;;;;;;2.00;2.00;;;;;;;;5009247;28;45791;-71
2023/07/05 03:52:39;;;;;;;;;2.67;2.00;;;;;;;;5006278;28;45712;-70
2023/07/05 03:55:05;;;;;;;;;4.00;1.00;;;;;;;;5010869;28;45512;-70
2023/07/05 03:57:30;;;;;;;;;1.00;1.00;;;;;;;;5009436;28;45912;-72
2023/07/05 03:59:55;;;;;;;;;5.00;3.00;;;;;;;;5011353;28;45810;-71
2023/07/05 04:02:20;;;;;;;;;1.00;1.00;;;;;;;;5010337;28;45687;-71
2023/07/05 04:04:46;;;;;;;;;3.67;2.00;;;;;;;;5009496;28;45606;-71
2023/07/05 04:07:11;;;;;;;;;3.00;3.00;;;;;;;;5009461;28;45441;-71
2023/07/05 04:09:36;;;;;;;;;3.67;1.00;;;;;;;;5009943;28;45533;-71
2023/07/05 04:12:01;;;;;;;;;2.33;1.00;;;;;;;;5011322;28;45659;-71
2023/07/05 04:14:27;;;;;;;;;2.33;1.67;;;;;;;;5009783;28;45735;-70
2023/07/05 04:16:52;;;;;;;;;2.00;2.00;;;;;;;;5007755;28;45726;-72
2023/07/05 04:19:17;;;;;;;;;2.00;2.00;;;;;;;;5008108;28;46188;-71
2023/07/05 04:21:42;;;;;;;;;1.67;1.33;;;;;;;;5010765;28;45532;-71
2023/07/05 04:24:08;;;;;;;;;4.67;2.00;;;;;;;;5007790;28;45688;-71
2023/07/05 04:26:33;;;;;;;;;3.00;1.00;;;;;;;;5004506;28;45432;-72
2023/07/05 04:28:58;;;;;;;;;2.67;1.00;;;;;;;;4990121;28;46144;-71
2023/07/05 04:31:27;;;;;;;;;1.33;1.00;;;;;;;;4992149;28;45821;-71
2023/07/05 04:33:53;;;;;;;;;2.00;1.00;;;;;;;;4993262;28;45618;-73
2023/07/05 04:36:18;;;;;;;;;2.00;2.00;;;;;;;;4995386;28;45675;-71
2023/07/05 04:38:44;;;;;;;;;9.33;6.67;;;;;;;;5007519;28;46393;-71
2023/07/05 04:41:09;;;;;;;;;2.67;2.67;;;;;;;;5000027;28;45532;-72
2023/07/05 04:43:34;;;;;;;;;4.33;4.33;;;;;;;;5006788;28;45448;-72
2023/07/05 04:46:00;;;;;;;;;3.33;2.33;;;;;;;;5009623;28;45956;-71
2023/07/05 04:48:27;;;;;;;;;3.00;3.00;;;;;;;;5009698;28;47593;-73
2023/07/05 04:50:54;;;;;;;;;3.33;2.00;;;;;;;;5010536;28;45441;-71
2023/07/05 04:53:20;;;;;;;;;4.67;2.33;;;;;;;;5012382;28;45353;-71
2023/07/05 04:55:46;;;;;;;;;2.00;2.00;;;;;;;;5011936;28;45744;-71
2023/07/05 04:58:12;;;;;;;;;3.67;2.00;;;;;;;;5018002;28;45872;-72
2023/07/05 05:00:37;;;;;;;;;5.33;2.33;;;;;;;;5030070;28;45370;-73
2023/07/05 05:03:03;;;;;;;;;4.00;3.00;;;;;;;;5020046;28;45876;-72
2023/07/05 05:05:29;;;;;;;;;2.67;2.67;;;;;;;;5027553;28;45617;-71
2023/07/05 05:07:54;;;;;;;;;1.00;1.00;;;;;;;;5019670;28;46570;-72
2023/07/05 05:10:19;;;;;;;;;2.00;2.00;;;;;;;;5012361;28;45606;-73
2023/07/05 05:12:44;;;;;;;;;2.75;2.00;;;;;;;;5012750;28;45562;-72
2023/07/05 05:15:10;;;;;;;;;4.67;2.00;;;;;;;;5010527;28;45859;-71
2023/07/05 05:17:35;;;;;;;;;3.00;2.75;;;;;;;;5011780;28;48126;-73
2023/07/05 05:20:00;;;;;;;;;2.00;2.00;;;;;;;;5013636;28;45796;-75
2023/07/05 05:22:26;;;;;;;;;3.00;3.00;;;;;;;;5003061;28;45711;-71
2023/07/05 05:24:51;;;;;;;;;5.00;2.00;;;;;;;;5013262;28;45798;-70
2023/07/05 05:27:16;;;;;;;;;4.00;2.00;;;;;;;;5010138;28;46641;-72
2023/07/05 05:29:41;;;;;;;;;4.75;4.00;;;;;;;;5004032;28;45895;-69
2023/07/05 05:32:07;;;;;;;;;5.00;2.25;;;;;;;;5000647;28;45793;-72
2023/07/05 05:34:32;;;;;;;;;2.25;2.25;;;;;;;;5002772;28;45716;-70
2023/07/05 05:36:58;;;;;;;;;2.00;1.00;;;;;;;;5006990;28;46505;-71
2023/07/05 05:39:32;;;;;;;;;4.00;3.25;;;;;;;;5004562;28;45455;-69
2023/07/05 05:41:57;;;;;;;;;4.75;2.50;;;;;;;;5005029;28;45703;-71
2023/07/05 05:44:23;;;;;;;;;3.75;3.75;;;;;;;;5008262;28;45479;-72
2023/07/05 05:46:48;;;;;;;;;1.00;1.00;;;;;;;;5006640;28;45339;-72
2023/07/05 05:49:13;;;;;;;;;3.50;2.00;;;;;;;;5011437;28;45811;-69
2023/07/05 05:51:39;;;;;;;;;3.25;1.75;;;;;;;;5006939;28;45448;-72
2023/07/05 05:54:05;;;;;;;;;3.00;3.00;;;;;;;;5018221;28;45682;-73
2023/07/05 05:56:30;;;;;;;;;3.50;2.25;;;;;;;;5022023;28;46495;-69
2023/07/05 05:58:55;;;;;;;;;3.25;3.00;;;;;;;;5008179;28;45681;-71
2023/07/05 06:01:20;;;;;;;;;4.00;1.50;;;;;;;;5005963;28;45467;-71
2023/07/05 06:03:47;;;;;;;;;3.00;3.00;;;;;;;;5006148;28;46598;-72
2023/07/05 06:06:12;;;;;;;;;5.25;5.00;;;;;;;;5011180;28;45572;-71
2023/07/05 06:08:37;;;;;;;;;4.00;3.00;;;;;;;;5011478;28;45701;-71
2023/07/05 06:11:03;;;;;;;;;3.00;3.00;;;;;;;;5014428;28;45699;-72
2023/07/05 06:13:29;;;;;;;;;5.00;3.00;;;;;;;;4999819;28;46524;-72
2023/07/05 06:15:55;;;;;;;;;2.75;2.75;;;;;;;;5008640;28;45888;-72
2023/07/05 06:18:20;;;;;;;;;2.50;2.50;;;;;;;;5008627;28;45559;-70
2023/07/05 06:20:46;;;;;;;;;3.00;3.00;;;;;;;;5008020;28;45807;-71
2023/07/05 06:23:11;;;;;;;;;2.75;1.75;;;;;;;;5002653;28;45941;-71
2023/07/05 06:25:36;;;;;;;;;2.25;2.00;;;;;;;;5008911;28;46237;-73
2023/07/05 06:28:02;;;;;;;;;1.00;1.00;;;;;;;;5010439;28;45521;-72
2023/07/05 06:30:27;;;;;;;;;1.75;1.75;;;;;;;;5009694;28;45379;-69
2023/07/05 06:32:52;;;;;;;;;3.00;2.00;;;;;;;;5009832;28;45759;-71
2023/07/05 06:35:17;;;;;;;;;1.75;1.75;;;;;;;;5009016;28;45670;-70
2023/07/05 06:37:43;;;;;;;;;2.00;2.00;;;;;;;;5010073;28;45310;-69
2023/07/05 06:40:08;;;;;;;;;2.00;1.00;;;;;;;;5010486;28;45815;-71
2023/07/05 06:42:33;;;;;;;;;3.00;2.00;;;;;;;;5009306;28;45738;-70
2023/07/05 06:44:59;;;;;;;;;3.75;1.00;;;;;;;;5010175;28;46375;-71
2023/07/05 06:47:24;;;;;;;;;4.50;2.75;;;;;;;;5009237;28;45415;-72
2023/07/05 06:49:49;;;;;;;;;2.75;2.00;;;;;;;;5007730;28;45703;-71
2023/07/05 06:52:15;;;;;;;;;3.25;2.25;;;;;;;;5009534;28;45623;-71
2023/07/05 06:54:40;;;;;;;;;2.25;2.25;;;;;;;;5012643;28;46183;-69
2023/07/05 06:57:05;;;;;;;;;1.00;1.00;;;;;;;;5008572;28;45700;-69
2023/07/05 06:59:32;;;;;;;;;2.50;1.50;;;;;;;;5020861;28;45496;-71
2023/07/05 07:01:57;;;;;;;;;1.00;1.00;;;;;;;;5002811;28;46312;-70
2023/07/05 07:04:23;;;;;;;;;2.00;1.75;;;;;;;;5021581;28;46084;-69
2023/07/05 07:06:48;;;;;;;;;2.25;2.00;;;;;;;;5006082;28;46029;-71
2023/07/05 07:09:13;;;;;;;;;2.00;2.00;;;;;;;;5005265;28;45356;-70
2023/07/05 07:11:39;;;;;;;;;3.00;2.00;;;;;;;;5008735;28;45820;-71
2023/07/05 07:14:04;;;;;;;;;3.00;2.75;;;;;;;;5003546;28;46166;-72
2023/07/05 07:16:30;;;;;;;;;2.00;2.00;;;;;;;;5006905;28;45502;-71
2023/07/05 07:18:55;;;;;;;;;1.75;1.75;;;;;;;;5007393;28;45786;-70
2023/07/05 07:21:21;;;;;;;;;1.00;1.00;;;;;;;;5002827;28;45758;-70
2023/07/05 07:23:47;;;;;;;;;3.25;2.25;;;;;;;;4993780;28;46688;-71
2023/07/05 07:26:17;;;;;;;;;2.75;2.75;;;;;;;;5002378;28;45805;-72
2023/07/05 07:28:47;;;;;;;;;4.00;3.00;;;;;;;;5006906;28;45543;-72
2023/07/05 07:31:19;;;;;;;;;1.50;1.50;;;;;;;;5001368;28;46364;-70
2023/07/05 07:33:45;;;;;;;;;1.00;1.00;;;;;;;;5008449;28;45454;-71
2023/07/05 07:36:30;;;;;;;;;1.75;1.75;;;;;;;;5007864;28;45996;-70
2023/07/05 07:38:56;;;;;;;;;1.50;1.50;;;;;;;;5010000;28;45510;-70
2023/07/05 07:41:22;;;;;;;;;2.25;2.25;;;;;;;;5023489;28;45850;-72
2023/07/05 07:43:51;;;;;;;;;2.75;2.00;;;;;;;;5017041;28;46087;-70
2023/07/05 07:46:17;;;;;;;;;2.00;2.00;;;;;;;;5007703;28;45835;-71
2023/07/05 07:48:44;;;;;;;;;2.75;2.75;;;;;;;;5017232;28;46952;-71
2023/07/05 07:51:10;;;;;;;;;1.25;1.00;;;;;;;;5008371;28;46120;-71
2023/07/05 07:53:35;;;;;;;;;3.00;1.25;;;;;;;;5009654;28;45752;-71
2023/07/05 07:56:08;;;;;;;;;4.00;3.00;;;;;;;;5004431;28;45978;-70
2023/07/05 07:58:33;;;;;;;;;2.25;2.25;;;;;;;;4996861;28;46015;-71
2023/07/05 08:01:09;;;;;;;;;4.25;2.25;;;;;;;;5009539;28;45767;-71
2023/07/05 08:03:34;;;;;;;;;3.50;2.25;;;;;;;;5008786;28;45907;-71
2023/07/05 08:05:59;;;;;;;;;2.75;2.75;;;;;;;;5013054;28;45562;-70
2023/07/05 08:08:25;;;;;;;;;5.00;3.00;;;;;;;;5009693;28;45513;-71
2023/07/05 08:10:50;;;;;;;;;1.00;1.00;;;;;;;;5010635;28;45533;-69
2023/07/05 08:13:15;;;;;;;;;4.50;2.00;;;;;;;;5011520;28;46363;-70
2023/07/05 08:15:41;;;;;;;;;4.75;2.25;;;;;;;;5011746;28;45712;-70
2023/07/05 08:18:06;;;;;;;;;3.75;2.50;;;;;;;;5001572;28;45411;-69
2023/07/05 08:20:31;;;;;;;;;2.50;1.50;;;;;;;;5011647;28;45843;-72
2023/07/05 08:22:56;;;;;;;;;3.00;2.00;;;;;;;;5015923;28;45702;-69
2023/07/05 08:25:22;;;;;;;;;1.50;1.50;;;;;;;;5015451;28;45908;-70
2023/07/05 08:27:47;;;;;;;;;1.00;1.00;;;;;;;;5015635;28;45429;-68
2023/07/05 08:30:14;;;;;;;;;1.00;0.00;;;;;;;;5009268;28;45549;-71
2023/07/05 08:32:40;;;;;;;;;4.00;2.00;;;;;;;;5021981;28;46348;-72
2023/07/05 08:35:06;;;;;;;;;1.50;1.50;;;;;;;;5011063;28;45862;-69
2023/07/05 08:37:31;;;;;;;;;3.25;1.50;;;;;;;;5009156;28;45506;-71
2023/07/05 08:39:56;;;;;;;;;2.50;2.00;;;;;;;;5012971;28;45665;-71
2023/07/05 08:42:41;;;;;;;;;1.00;1.00;;;;;;;;5015770;28;46128;-71
2023/07/05 08:45:06;;;;;;;;;2.75;2.25;;;;;;;;5014285;28;45897;-70
2023/07/05 08:47:36;;;;;;;;;1.00;1.00;;;;;;;;5014585;28;45504;-72
2023/07/05 08:50:20;;;;;;;;;4.50;2.00;;;;;;;;5012921;28;46311;-72
2023/07/05 08:52:47;;;;;;;;;2.00;2.00;;;;;;;;5016798;28;45766;-72
2023/07/05 08:55:14;;;;;;;;;1.75;1.75;;;;;;;;5015057;28;45933;-71
2023/07/05 08:57:46;;;;;;;;;2.25;2.25;;;;;;;;5011816;28;45743;-71
2023/07/05 09:00:14;;;;;;;;;2.00;1.75;;;;;;;;5002416;28;45890;-69
2023/07/05 09:02:39;;;;;;;;;1.00;1.00;;;;;;;;5007840;28;46820;-71
2023/07/05 09:05:24;;;;;;;;;2.25;2.25;;;;;;;;5009662;28;45914;-72
2023/07/05 09:07:55;;;;;;;;;2.50;2.00;;;;;;;;5009562;28;45761;-69
2023/07/05 09:10:41;;;;;;;;;3.25;3.25;;;;;;;;5004501;28;45982;-70
2023/07/05 09:13:24;;;;;;;;;3.75;1.00;;;;;;;;4999664;28;46688;-68
2023/07/05 09:15:56;;;;;;;;;2.25;2.25;;;;;;;;5002633;28;45937;-72
2023/07/05 09:18:31;;;;;;;;;3.00;2.75;;;;;;;;5008728;28;45551;-73
2023/07/05 09:20:56;;;;;;;;;5.00;2.25;;;;;;;;5009996;28;45734;-69
2023/07/05 09:23:27;;;;;;;;;1.50;1.00;;;;;;;;5010375;28;45687;-69
2023/07/05 09:25:56;;;;;;;;;1.25;1.25;;;;;;;;5010572;28;45481;-73
2023/07/05 09:28:28;;;;;;;;;4.50;3.00;;;;;;;;5012183;28;45628;-70
2023/07/05 09:30:54;;;;;;;;;1.25;1.25;;;;;;;;5011982;28;45717;-70
2023/07/05 09:33:22;;;;;;;;;3.75;3.00;;;;;;;;5010199;28;46694;-71
2023/07/05 09:35:48;;;;;;;;;3.50;2.00;;;;;;;;5003776;28;45471;-70
2023/07/05 09:38:29;;;;;;;;;3.50;2.00;;;;;;;;5009842;28;45824;-68
2023/07/05 09:41:04;;;;;;;;;2.00;2.00;;;;;;;;5010444;28;45635;-70
2023/07/05 09:43:33;;;;;;;;;3.50;2.25;;;;;;;;5011174;28;45371;-69
2023/07/05 09:46:04;;;;;;;;;2.25;1.00;;;;;;;;5015307;28;45649;-70
2023/07/05 09:48:30;;;;;;;;;2.50;2.00;;;;;;;;5011907;28;45579;-71
2023/07/05 09:50:57;;;;;;;;;1.25;1.25;;;;;;;;5009882;28;45435;-70
2023/07/05 09:53:35;;;;;;;;;4.25;1.75;;;;;;;;5008781;28;46444;-71
2023/07/05 09:56:04;;;;;;;;;2.50;2.50;;;;;;;;5010222;28;45541;-70
2023/07/05 09:58:30;;;;;;;;;2.00;2.00;;;;;;;;5011096;28;45454;-71
2023/07/05 10:00:55;;;;;;;;;4.25;1.25;;;;;;;;5010864;28;45423;-71
2023/07/05 10:03:21;;;;;;;;;3.50;1.25;;;;;;;;5010163;28;47120;-72
2023/07/05 10:05:53;;;;;;;;;4.00;4.00;;;;;;;;5010264;28;45515;-70
2023/07/05 10:08:21;;;;;;;;;3.00;2.00;;;;;;;;5012344;28;45387;-70
2023/07/05 10:10:47;;;;;;;;;4.50;2.25;;;;;;;;5014801;28;45636;-71
2023/07/05 10:13:19;;;;;;;;;2.25;2.25;;;;;;;;5008483;28;46406;-70
2023/07/05 10:15:49;;;;;;;;;2.00;2.00;;;;;;;;5009016;28;45493;-70
2023/07/05 10:18:24;;;;;;;;;2.75;1.25;;;;;;;;5009426;28;45661;-70
2023/07/05 10:20:50;;;;;;;;;4.75;3.75;;;;;;;;5007739;28;45945;-70
2023/07/05 10:23:17;;;;;;;;;2.00;2.00;;;;;;;;5008592;28;46878;-70
2023/07/05 10:25:43;;;;;;;;;3.00;3.00;;;;;;;;5009657;28;45397;-69
2023/07/05 10:28:12;;;;;;;;;3.25;3.25;;;;;;;;5006602;28;45585;-69
2023/07/05 10:30:59;;;;;;;;;3.00;2.00;;;;;;;;4996293;28;47438;-68
2023/07/05 10:33:40;;;;;;;;;2.75;2.75;;;;;;;;4997593;28;46564;-71
2023/07/05 10:36:09;;;;;;;;;1.00;1.00;;;;;;;;5002064;28;45490;-71
2023/07/05 10:38:34;;;;;;;;;1.25;1.25;;;;;;;;5007654;28;45977;-68
2023/07/05 10:41:01;;;;;;;;;2.00;2.00;;;;;;;;5003394;28;46130;-71
2023/07/05 10:43:28;;;;;;;;;2.00;1.00;;;;;;;;5008316;28;46502;-70
2023/07/05 10:45:54;;;;;;;;;0.25;0.25;;;;;;;;5003491;28;46524;-70
2023/07/05 10:48:24;;;;;;;;;1.50;1.50;;;;;;;;5008483;28;45661;-70
2023/07/05 10:50:49;;;;;;;;;2.50;2.25;;;;;;;;5008314;28;45735;-69
2023/07/05 10:53:17;;;;;;;;;4.00;2.50;;;;;;;;5007917;28;46716;-67
2023/07/05 10:55:45;;;;;;;;;1.50;1.50;;;;;;;;5008474;28;45742;-66
2023/07/05 10:58:13;;;;;;;;;2.00;2.00;;;;;;;;5007048;28;45448;-70
2023/07/05 11:00:41;;;;;;;;;2.00;2.00;;;;;;;;5008131;28;45875;-70
2023/07/05 11:03:11;;;;;;;;;2.00;2.00;;;;;;;;5008711;28;46910;-68
2023/07/05 11:05:50;;;;;;;;;3.00;2.00;;;;;;;;5022632;28;45522;-69
2023/07/05 11:08:23;;;;;;;;;1.75;1.50;;;;;;;;5018244;28;45512;-71
2023/07/05 11:10:50;;;;;;;;;2.00;2.00;;;;;;;;5018453;28;45705;-69
2023/07/05 11:13:17;;;;;;;;;4.25;1.00;;;;;;;;5019435;28;46352;-72
2023/07/05 11:15:43;;;;;;;;;2.50;2.50;;;;;;;;5016536;28;46035;-70
2023/07/05 11:18:14;;;;;;;;;3.25;2.25;;;;;;;;5011466;28;45661;-71
2023/07/05 11:20:40;;;;;;;;;2.25;2.00;;;;;;;;5007830;28;45577;-72
2023/07/05 11:23:09;;;;;;;;;2.50;2.00;;;;;;;;5007969;28;45958;-72
2023/07/05 11:25:52;;;;;;;;;2.75;2.00;;;;;;;;5008876;28;45873;-71
2023/07/05 11:28:37;;;;;;;;;2.00;2.00;;;;;;;;5009719;28;45439;-69
2023/07/05 11:31:04;;;;;;;;;2.25;2.25;;;;;;;;5007146;28;45478;-70
2023/07/05 11:33:29;;;;;;;;;1.25;1.25;;;;;;;;5008992;28;46955;-71
2023/07/05 11:35:56;;;;;;;;;1.00;1.00;;;;;;;;5010882;28;45914;-69
2023/07/05 11:38:37;;;;;;;;;1.00;1.00;;;;;;;;4995113;28;45418;-69
2023/07/05 11:41:04;;;;;;;;;1.25;1.00;;;;;;;;5009413;28;45947;-70
2023/07/05 11:43:36;;;;;;;;;2.00;2.00;;;;;;;;5009929;28;46933;-70
2023/07/05 11:46:01;;;;;;;;;1.00;1.00;;;;;;;;5006505;28;45872;-68
2023/07/05 11:48:40;;;;;;;;;2.75;2.75;;;;;;;;5010208;28;45450;-70
2023/07/05 11:51:17;;;;;;;;;2.00;2.00;;;;;;;;5010960;28;45501;-69
2023/07/05 11:53:44;;;;;;;;;4.50;2.00;;;;;;;;5010671;28;46313;-69
2023/07/05 11:56:09;;;;;;;;;3.00;2.00;;;;;;;;5009376;28;45409;-68
2023/07/05 11:58:35;;;;;;;;;3.00;3.00;;;;;;;;5012007;28;45504;-69
2023/07/05 12:01:02;;;;;;;;;3.50;3.00;;;;;;;;5011268;28;45935;-68
2023/07/05 12:03:40;;;;;;;;;2.00;2.00;;;;;;;;5013833;28;45441;-68
2023/07/05 12:06:06;;;;;;;;;2.00;2.00;;;;;;;;5014174;28;45516;-70
2023/07/05 12:08:36;;;;;;;;;2.00;2.00;;;;;;;;5011938;28;45350;-69
2023/07/05 12:11:02;;;;;;;;;3.25;2.00;;;;;;;;5010400;28;45838;-69
2023/07/05 12:13:31;;;;;;;;;4.75;2.00;;;;;;;;5015244;28;45387;-68
2023/07/05 12:15:57;;;;;;;;;3.25;1.00;;;;;;;;5008820;28;45836;-69
2023/07/05 12:18:23;;;;;;;;;2.00;1.00;;;;;;;;5017792;28;45374;-69
2023/07/05 12:20:50;;;;;;;;;2.25;2.00;;;;;;;;5014314;28;45483;-69
2023/07/05 12:23:17;;;;;;;;;2.25;2.25;;;;;;;;5012777;28;46384;-68
2023/07/05 12:25:46;;;;;;;;;2.75;2.50;;;;;;;;5014370;28;45704;-70
2023/07/05 12:28:15;;;;;;;;;1.75;1.50;;;;;;;;5013421;28;45853;-69
2023/07/05 12:30:41;;;;;;;;;2.25;1.25;;;;;;;;5013885;28;45546;-68
2023/07/05 12:33:18;;;;;;;;;3.75;3.00;;;;;;;;5012349;28;45841;-71
2023/07/05 12:35:44;;;;;;;;;4.00;2.00;;;;;;;;5014497;28;45621;-70
2023/07/05 12:38:15;;;;;;;;;4.50;3.25;;;;;;;;5013991;28;45371;-72
2023/07/05 12:40:40;;;;;;;;;3.25;2.25;;;;;;;;5013515;28;45842;-71
2023/07/05 12:43:08;;;;;;;;;1.25;0.50;;;;;;;;5013156;28;46711;-71
2023/07/05 12:45:40;;;;;;;;;2.00;2.00;;;;;;;;4995173;28;45389;-71
2023/07/05 12:48:15;;;;;;;;;1.00;1.00;;;;;;;;5014338;28;45454;-70
2023/07/05 12:50:41;;;;;;;;;2.00;1.00;;;;;;;;5012816;28;45613;-72
2023/07/05 12:53:13;;;;;;;;;3.25;2.25;;;;;;;;5013162;28;46094;-71
2023/07/05 12:55:40;;;;;;;;;2.25;1.75;;;;;;;;5010716;28;45465;-72
2023/07/05 12:58:06;;;;;;;;;5.00;4.00;;;;;;;;5011739;28;45528;-72
2023/07/05 13:00:32;;;;;;;;;3.00;3.00;;;;;;;;5010299;28;45531;-71
2023/07/05 13:03:00;;;;;;;;;1.00;1.00;;;;;;;;5010648;28;45501;-72
2023/07/05 13:05:26;;;;;;;;;3.00;2.00;;;;;;;;5015068;28;45646;-73
2023/07/05 13:07:52;;;;;;;;;2.00;2.00;;;;;;;;5015865;28;45526;-72
2023/07/05 13:10:18;;;;;;;;;3.50;2.00;;;;;;;;5011879;28;45372;-71
2023/07/05 13:12:53;;;;;;;;;1.25;1.25;;;;;;;;5012055;28;46397;-71
2023/07/05 13:15:18;;;;;;;;;2.75;1.75;;;;;;;;5013318;28;45858;-72
2023/07/05 13:17:44;;;;;;;;;2.00;2.00;;;;;;;;5018424;28;45433;-72
2023/07/05 13:20:11;;;;;;;;;4.00;4.00;;;;;;;;5007311;28;45434;-72
2023/07/05 13:22:44;;;;;;;;;3.00;3.00;;;;;;;;5006344;28;45945;-71
2023/07/05 13:25:28;;;;;;;;;2.75;2.25;;;;;;;;5002657;28;45826;-71
2023/07/05 13:27:55;;;;;;;;;2.00;2.00;;;;;;;;5011836;28;45422;-70
2023/07/05 13:30:21;;;;;;;;;1.50;1.00;;;;;;;;5014982;28;45429;-71
2023/07/05 13:32:49;;;;;;;;;4.00;2.00;;;;;;;;5007992;28;45943;-71
2023/07/05 13:35:15;;;;;;;;;2.50;2.50;;;;;;;;5009909;28;45749;-70
2023/07/05 13:37:40;;;;;;;;;3.50;1.00;;;;;;;;5011382;28;45501;-70
2023/07/05 13:40:09;;;;;;;;;2.75;2.50;;;;;;;;5011717;28;46028;-70
2023/07/05 13:42:38;;;;;;;;;2.00;1.00;;;;;;;;5010454;28;45818;-70
2023/07/05 13:45:09;;;;;;;;;3.00;2.00;;;;;;;;5010831;28;45872;-71
2023/07/05 13:47:34;;;;;;;;;2.25;2.25;;;;;;;;5013662;28;45875;-70
2023/07/05 13:49:59;;;;;;;;;3.75;2.00;;;;;;;;5010341;28;45753;-71
2023/07/05 13:52:25;;;;;;;;;1.00;1.00;;;;;;;;5009172;28;45608;-71
2023/07/05 13:54:50;;;;;;;;;1.00;1.00;;;;;;;;5000517;28;45758;-70
2023/07/05 13:57:16;;;;;;;;;3.50;1.75;;;;;;;;5009927;28;45422;-72
2023/07/05 13:59:42;;;;;;;;;2.50;2.00;;;;;;;;5008446;28;46844;-72
2023/07/05 14:02:27;;;;;;;;;5.00;3.00;;;;;;;;5010057;28;46399;-72
2023/07/05 14:04:53;;;;;;;;;2.00;2.00;;;;;;;;5007825;28;45439;-70
2023/07/05 14:07:18;;;;;;;;;1.00;1.00;;;;;;;;5010196;28;45512;-70
2023/07/05 14:09:44;;;;;;;;;2.00;2.00;;;;;;;;5010329;28;45850;-71
2023/07/05 14:12:14;;;;;;;;;1.00;1.00;;;;;;;;5005040;28;46790;-72
2023/07/05 14:14:39;;;;;;;;;0.75;0.75;;;;;;;;5004387;28;45469;-71
2023/07/05 14:17:04;;;;;;;;;2.00;1.75;;;;;;;;5001533;28;46057;-72
2023/07/05 14:19:30;;;;;;;;;1.00;1.00;;;;;;;;5005081;28;45604;-71
2023/07/05 14:21:55;;;;;;;;;2.00;2.00;;;;;;;;4998007;28;45605;-71
2023/07/05 14:24:20;;;;;;;;;3.25;2.50;;;;;;;;5009963;28;45815;-72
2023/07/05 14:26:46;;;;;;;;;3.50;1.00;;;;;;;;5010663;28;45437;-72
2023/07/05 14:29:13;;;;;;;;;3.25;3.25;;;;;;;;5010353;28;46456;-71
2023/07/05 14:31:38;;;;;;;;;3.00;2.00;;;;;;;;4998179;28;45698;-71
2023/07/05 14:34:03;;;;;;;;;1.00;1.00;;;;;;;;4995543;28;45607;-70
2023/07/05 14:36:29;;;;;;;;;1.00;1.00;;;;;;;;4996124;28;45716;-71
2023/07/05 14:38:54;;;;;;;;;2.75;2.75;;;;;;;;5007283;28;45730;-72
2023/07/05 14:41:23;;;;;;;;;1.75;1.75;;;;;;;;5009283;28;45836;-72
2023/07/05 14:43:49;;;;;;;;;1.50;1.50;;;;;;;;5005847;28;46012;-72